Time;durP1;ratioP1;P1;durP2;ratioP2;P2;SDS_P1;SDS_P2;PMS_P1;PMS_P2;Temp;Humidity;BMP_temperature;BMP_pressure;BME280_temperature;BME280_humidity;BME280_pressure;Samples;Min_cycle;Max_cycle;Signal;HPM_P1;HPM_P2
2023/09/03 00:00:39;;;;;;;5.60;3.08;;;15.40;99.90;;;;;;5082076;28;20025;-71
2023/09/03 00:03:05;;;;;;;9.07;3.22;;;15.40;99.90;;;;;;5080724;28;20036;-71
2023/09/03 00:05:31;;;;;;;6.93;3.00;;;15.30;99.90;;;;;;5076729;28;21149;-71
2023/09/03 00:07:56;;;;;;;13.60;3.45;;;15.30;99.90;;;;;;5084740;28;20032;-71
2023/09/03 00:10:22;;;;;;;15.77;3.58;;;15.30;99.90;;;;;;5076070;28;20107;-70
2023/09/03 00:12:47;;;;;;;7.18;3.88;;;15.40;99.90;;;;;;5086549;28;20046;-71
2023/09/03 00:15:13;;;;;;;6.10;2.92;;;15.40;99.90;;;;;;5085726;28;20040;-71
2023/09/03 00:17:39;;;;;;;6.05;2.80;;;15.30;99.90;;;;;;5086202;28;20629;-71
2023/09/03 00:20:05;;;;;;;5.55;2.80;;;15.30;99.90;;;;;;5084300;28;20068;-71
2023/09/03 00:22:31;;;;;;;8.18;3.45;;;15.20;99.90;;;;;;5087894;28;20035;-71
2023/09/03 00:24:57;;;;;;;9.75;3.15;;;15.20;99.90;;;;;;5086743;28;20031;-71
2023/09/03 00:27:22;;;;;;;6.38;3.25;;;15.20;99.90;;;;;;5087693;28;20476;-72
2023/09/03 00:29:48;;;;;;;6.53;2.78;;;15.20;99.90;;;;;;5084710;28;20505;-71
2023/09/03 00:32:14;;;;;;;8.15;3.63;;;15.20;99.90;;;;;;5084010;28;20107;-71
2023/09/03 00:34:39;;;;;;;6.15;2.72;;;15.20;99.90;;;;;;5088148;28;20074;-72
2023/09/03 00:37:05;;;;;;;5.40;2.80;;;15.20;99.90;;;;;;5087351;28;20036;-71
2023/09/03 00:39:30;;;;;;;7.35;3.30;;;15.20;99.90;;;;;;5086590;28;20471;-71
2023/09/03 00:41:56;;;;;;;9.48;3.30;;;15.20;99.90;;;;;;5087776;28;20094;-71
2023/09/03 00:44:22;;;;;;;6.63;3.30;;;15.20;99.90;;;;;;5085941;28;20028;-71
2023/09/03 00:46:48;;;;;;;11.10;3.22;;;15.20;99.90;;;;;;5087965;28;20050;-71
2023/09/03 00:49:20;;;;;;;8.50;3.53;;;15.30;99.90;;;;;;5086887;28;20047;-71
2023/09/03 00:51:45;;;;;;;6.15;3.42;;;15.20;99.90;;;;;;5084537;28;20100;-72
2023/09/03 00:54:13;;;;;;;7.32;3.13;;;15.20;99.90;;;;;;5089591;28;20524;-71
2023/09/03 00:56:39;;;;;;;5.63;2.72;;;15.20;99.90;;;;;;5084435;28;20040;-71
2023/09/03 00:59:06;;;;;;;7.65;3.00;;;15.10;99.90;;;;;;5087507;28;20406;-71
2023/09/03 01:01:32;;;;;;;4.55;2.88;;;15.00;99.90;;;;;;5089212;28;20114;-71
2023/09/03 01:03:58;;;;;;;5.43;2.60;;;15.10;99.90;;;;;;5087863;28;20080;-71
2023/09/03 01:06:25;;;;;;;9.05;2.95;;;15.00;99.90;;;;;;5085609;28;20066;-71
2023/09/03 01:08:51;;;;;;;8.13;3.40;;;15.00;99.90;;;;;;5083598;28;20591;-71
2023/09/03 01:11:37;;;;;;;7.28;2.80;;;14.90;99.90;;;;;;5088460;28;20079;-71
2023/09/03 01:14:36;;;;;;;7.43;2.88;;;15.00;99.90;;;;;;5089080;28;20117;-71
2023/09/03 01:17:25;;;;;;;10.15;3.13;;;14.90;99.90;;;;;;5081519;28;20043;-71
2023/09/03 01:20:09;;;;;;;6.97;3.00;;;14.80;99.90;;;;;;5086131;28;20040;-72
2023/09/03 01:22:50;;;;;;;6.20;2.97;;;14.80;99.90;;;;;;5091263;28;20119;-72
2023/09/03 01:25:57;;;;;;;7.93;3.22;;;14.90;99.90;;;;;;5089814;28;20553;-71
2023/09/03 01:28:31;;;;;;;7.68;3.35;;;15.00;99.90;;;;;;5089081;28;20613;-70
2023/09/03 01:31:02;;;;;;;6.22;3.33;;;15.10;99.90;;;;;;5090911;28;20032;-70
2023/09/03 01:33:30;;;;;;;5.30;3.20;;;15.10;99.90;;;;;;5089294;28;20105;-70
2023/09/03 01:35:57;;;;;;;7.18;3.67;;;15.20;99.90;;;;;;5087481;28;20499;-70
2023/09/03 01:38:23;;;;;;;5.72;3.78;;;15.20;99.90;;;;;;5089094;28;20681;-70
2023/09/03 01:40:57;;;;;;;8.32;3.90;;;15.10;99.90;;;;;;5091169;28;20039;-71
2023/09/03 01:43:23;;;;;;;6.70;3.60;;;15.00;99.90;;;;;;5089935;28;20020;-71
2023/09/03 01:45:51;;;;;;;8.00;3.42;;;15.00;99.90;;;;;;5089232;28;20081;-71
2023/09/03 01:48:45;;;;;;;4.72;3.10;;;15.10;99.90;;;;;;5089397;28;20128;-70
2023/09/03 01:51:36;;;;;;;8.40;3.15;;;15.10;99.90;;;;;;5089183;28;20503;-70
2023/09/03 01:54:02;;;;;;;11.15;3.53;;;15.00;99.90;;;;;;5089832;28;20449;-70
2023/09/03 01:56:31;;;;;;;10.25;3.65;;;15.00;99.90;;;;;;5090268;28;20093;-71
2023/09/03 01:59:04;;;;;;;6.88;3.85;;;15.00;99.90;;;;;;5085578;28;20032;-70
2023/09/03 02:01:32;;;;;;;6.50;3.40;;;15.00;99.90;;;;;;5086308;28;20073;-70
2023/09/03 02:03:58;;;;;;;7.97;3.30;;;15.00;99.90;;;;;;5070039;28;20043;-71
2023/09/03 02:06:24;;;;;;;5.93;3.22;;;15.00;99.90;;;;;;5078798;28;20032;-70
2023/09/03 02:08:49;;;;;;;4.53;3.30;;;15.00;99.90;;;;;;5090273;28;20031;-72
2023/09/03 02:11:15;;;;;;;8.00;3.40;;;15.00;99.90;;;;;;5088457;28;20388;-72
2023/09/03 02:13:41;;;;;;;6.03;3.55;;;14.90;99.90;;;;;;5090453;28;20032;-71
2023/09/03 02:16:06;;;;;;;10.82;3.70;;;14.90;99.90;;;;;;5088818;28;20481;-71
2023/09/03 02:18:32;;;;;;;6.97;3.30;;;14.90;99.90;;;;;;5089162;28;20036;-71
2023/09/03 02:20:57;;;;;;;6.53;3.78;;;14.80;99.90;;;;;;5089707;28;20535;-71
2023/09/03 02:23:23;;;;;;;6.45;3.80;;;14.80;99.90;;;;;;5089200;28;20271;-71
2023/09/03 02:25:59;;;;;;;5.78;3.40;;;14.80;99.90;;;;;;5089111;28;20028;-70
2023/09/03 02:28:25;;;;;;;8.75;3.97;;;14.80;99.90;;;;;;5089141;28;20024;-70
2023/09/03 02:30:50;;;;;;;8.18;3.80;;;14.80;99.90;;;;;;5086052;28;20032;-70
2023/09/03 02:33:16;;;;;;;6.57;3.55;;;14.90;99.90;;;;;;5087731;28;20101;-70
2023/09/03 02:35:41;;;;;;;7.88;3.97;;;14.80;99.90;;;;;;5070977;28;20048;-70
2023/09/03 02:38:07;;;;;;;5.20;3.33;;;14.70;99.90;;;;;;5067246;28;20055;-70
2023/09/03 02:40:33;;;;;;;8.95;3.47;;;14.70;99.90;;;;;;5088910;28;20153;-71
2023/09/03 02:42:58;;;;;;;7.75;3.50;;;14.70;99.90;;;;;;5089687;28;20078;-71
2023/09/03 02:45:24;;;;;;;10.23;3.45;;;14.70;99.90;;;;;;5085982;28;20047;-71
2023/09/03 02:47:49;;;;;;;6.55;3.40;;;14.60;99.90;;;;;;5069072;28;20127;-72
2023/09/03 02:50:15;;;;;;;6.05;3.75;;;14.70;99.90;;;;;;5071442;28;20039;-71
2023/09/03 02:52:41;;;;;;;8.88;3.67;;;14.60;99.90;;;;;;5087787;28;20105;-70
2023/09/03 02:55:06;;;;;;;11.80;3.72;;;14.60;99.90;;;;;;5088586;28;20111;-70
2023/09/03 02:57:33;;;;;;;6.72;3.30;;;14.60;99.90;;;;;;5088176;28;20044;-70
2023/09/03 02:59:59;;;;;;;6.70;3.30;;;14.60;99.90;;;;;;5083758;28;20082;-71
2023/09/03 03:02:25;;;;;;;6.28;3.28;;;14.50;99.90;;;;;;5086392;28;20028;-71
2023/09/03 03:04:51;;;;;;;7.93;4.18;;;14.50;99.90;;;;;;5088074;28;20040;-70
2023/09/03 03:07:16;;;;;;;8.27;4.13;;;14.50;99.90;;;;;;5088204;28;20036;-71
2023/09/03 03:09:42;;;;;;;9.75;3.20;;;14.40;99.90;;;;;;5085734;28;20024;-71
2023/09/03 03:12:08;;;;;;;10.55;3.70;;;14.40;99.90;;;;;;5081894;28;20090;-71
2023/09/03 03:14:33;;;;;;;14.43;4.15;;;14.40;99.90;;;;;;5086362;28;20043;-72
2023/09/03 03:16:59;;;;;;;11.05;3.80;;;14.40;99.90;;;;;;5087335;28;20121;-70
2023/09/03 03:19:25;;;;;;;9.05;3.55;;;14.40;99.90;;;;;;5088284;28;20268;-70
2023/09/03 03:21:50;;;;;;;10.55;3.45;;;14.40;99.90;;;;;;5087470;28;20111;-70
2023/09/03 03:24:16;;;;;;;8.88;3.38;;;14.40;99.90;;;;;;5086921;28;20024;-71
2023/09/03 03:26:41;;;;;;;10.57;3.67;;;14.40;99.90;;;;;;5088540;28;20028;-71
2023/09/03 03:29:09;;;;;;;5.30;3.17;;;14.40;99.90;;;;;;5087066;28;20090;-70
2023/09/03 03:31:34;;;;;;;7.10;3.90;;;14.40;99.90;;;;;;5088061;28;20036;-70
2023/09/03 03:34:00;;;;;;;7.57;3.72;;;14.40;99.90;;;;;;5087263;28;20541;-70
2023/09/03 03:36:26;;;;;;;7.93;3.80;;;14.40;99.90;;;;;;5087900;28;20031;-71
2023/09/03 03:38:51;;;;;;;9.68;3.80;;;14.50;99.90;;;;;;5087880;28;20024;-70
2023/09/03 03:41:19;;;;;;;9.50;3.90;;;14.40;99.90;;;;;;5086405;28;20020;-70
2023/09/03 03:43:47;;;;;;;6.72;3.83;;;14.40;99.90;;;;;;5086528;28;20056;-70
2023/09/03 03:46:15;;;;;;;9.75;3.90;;;14.40;99.90;;;;;;5087329;28;20032;-70
2023/09/03 03:48:42;;;;;;;6.35;3.75;;;14.50;99.90;;;;;;5087874;28;20791;-70
2023/09/03 03:51:08;;;;;;;7.60;3.42;;;14.50;99.90;;;;;;5088395;28;20546;-71
2023/09/03 03:53:33;;;;;;;6.38;3.47;;;14.50;99.90;;;;;;5087299;28;20028;-71
2023/09/03 03:56:00;;;;;;;6.07;3.25;;;14.50;99.90;;;;;;5087091;28;20032;-72
2023/09/03 03:58:27;;;;;;;10.20;3.45;;;14.30;99.90;;;;;;5086819;28;20369;-71
2023/09/03 04:00:53;;;;;;;7.57;3.28;;;14.30;99.90;;;;;;5088762;28;20024;-70
2023/09/03 04:03:18;;;;;;;6.57;3.20;;;14.30;99.90;;;;;;5087381;28;20078;-71
2023/09/03 04:05:44;;;;;;;6.03;3.47;;;14.30;99.90;;;;;;5087275;28;20074;-71
2023/09/03 04:08:10;;;;;;;5.22;3.08;;;14.40;99.90;;;;;;5089857;28;20077;-71
2023/09/03 04:10:35;;;;;;;10.02;3.72;;;14.40;99.90;;;;;;5086940;28;20035;-71
2023/09/03 04:13:01;;;;;;;8.45;3.97;;;14.40;99.90;;;;;;5088209;28;20032;-71
2023/09/03 04:15:26;;;;;;;7.18;3.47;;;14.40;99.90;;;;;;5085872;28;20028;-71
2023/09/03 04:17:52;;;;;;;6.93;3.30;;;14.40;99.90;;;;;;5088395;28;20036;-70
2023/09/03 04:20:18;;;;;;;8.57;3.70;;;14.40;99.90;;;;;;5085538;28;20028;-71
2023/09/03 04:22:43;;;;;;;9.30;3.45;;;14.40;99.90;;;;;;5090364;28;20492;-71
2023/09/03 04:25:09;;;;;;;5.90;3.60;;;14.40;99.90;;;;;;5091033;28;20035;-71
2023/09/03 04:27:34;;;;;;;7.57;3.70;;;14.40;99.90;;;;;;5091814;28;20056;-71
2023/09/03 04:30:00;;;;;;;6.40;3.65;;;14.50;99.90;;;;;;5091053;28;20027;-70
2023/09/03 04:32:26;;;;;;;7.72;3.75;;;14.50;99.90;;;;;;5090366;28;20024;-70
2023/09/03 04:34:51;;;;;;;8.55;3.70;;;14.40;99.90;;;;;;5092088;28;20036;-70
2023/09/03 04:37:17;;;;;;;5.93;3.60;;;14.40;99.90;;;;;;5091261;28;20036;-70
2023/09/03 04:39:43;;;;;;;11.75;3.40;;;14.30;99.90;;;;;;5064483;28;20036;-70
2023/09/03 04:42:08;;;;;;;6.50;3.53;;;14.20;99.90;;;;;;5091294;28;20059;-70
2023/09/03 04:44:37;;;;;;;8.32;3.50;;;14.20;99.90;;;;;;5091217;28;20028;-71
2023/09/03 04:47:05;;;;;;;6.30;3.35;;;14.30;99.90;;;;;;5088994;28;20102;-72
2023/09/03 04:49:31;;;;;;;9.57;3.50;;;14.30;99.90;;;;;;5091046;28;20098;-71
2023/09/03 04:51:57;;;;;;;9.85;3.30;;;14.30;99.90;;;;;;5091290;28;20460;-71
2023/09/03 04:54:22;;;;;;;7.03;3.70;;;14.40;99.90;;;;;;5091032;28;20043;-71
2023/09/03 04:56:48;;;;;;;5.70;3.70;;;14.40;99.90;;;;;;5090227;28;20144;-72
2023/09/03 04:59:14;;;;;;;9.77;4.13;;;14.40;99.90;;;;;;5090189;28;20036;-71
2023/09/03 05:01:41;;;;;;;14.57;3.80;;;14.50;99.90;;;;;;5090910;28;20051;-72
2023/09/03 05:04:06;;;;;;;6.43;3.47;;;14.40;99.90;;;;;;5084460;28;20383;-71
2023/09/03 05:06:32;;;;;;;5.53;3.67;;;14.40;99.90;;;;;;5104953;28;20024;-72
2023/09/03 05:08:58;;;;;;;8.35;3.67;;;14.40;99.90;;;;;;5111932;28;20027;-70
2023/09/03 05:11:23;;;;;;;5.13;3.40;;;14.40;99.90;;;;;;5094466;28;20495;-72
2023/09/03 05:13:49;;;;;;;10.85;3.55;;;14.50;99.90;;;;;;5087392;28;20024;-71
2023/09/03 05:16:14;;;;;;;6.55;3.35;;;14.50;99.90;;;;;;5090742;28;20067;-71
2023/09/03 05:18:40;;;;;;;8.68;3.13;;;14.40;99.90;;;;;;5089175;28;20214;-71
2023/09/03 05:21:10;;;;;;;8.02;3.42;;;14.40;99.90;;;;;;5090090;28;20189;-72
2023/09/03 05:23:36;;;;;;;13.18;3.60;;;14.30;99.90;;;;;;5090576;28;20020;-71
2023/09/03 05:26:02;;;;;;;6.32;3.60;;;14.30;99.90;;;;;;5090898;28;20039;-71
2023/09/03 05:28:27;;;;;;;6.38;3.30;;;14.30;99.90;;;;;;5087349;28;20020;-72
2023/09/03 05:30:53;;;;;;;8.50;3.50;;;14.40;99.90;;;;;;5085661;28;20036;-71
2023/09/03 05:33:18;;;;;;;5.25;3.20;;;14.40;99.90;;;;;;5086178;28;20036;-72
2023/09/03 05:35:44;;;;;;;10.05;3.60;;;14.40;99.90;;;;;;5083799;28;20039;-71
2023/09/03 05:38:10;;;;;;;9.10;3.45;;;14.40;99.90;;;;;;5081804;28;20036;-71
2023/09/03 05:40:36;;;;;;;13.13;3.30;;;14.50;99.90;;;;;;5097435;28;20026;-72
2023/09/03 05:43:01;;;;;;;12.18;3.60;;;14.60;99.90;;;;;;5104059;28;20043;-71
2023/09/03 05:45:27;;;;;;;9.48;3.85;;;14.60;99.90;;;;;;5090020;28;20130;-71
2023/09/03 05:47:52;;;;;;;9.60;3.40;;;14.70;99.90;;;;;;5088145;28;20058;-71
2023/09/03 05:50:18;;;;;;;8.77;3.40;;;14.70;99.90;;;;;;5085738;28;20643;-72
2023/09/03 05:52:43;;;;;;;7.38;3.30;;;14.80;99.90;;;;;;5090453;28;20511;-72
2023/09/03 05:55:10;;;;;;;11.85;3.63;;;14.80;99.90;;;;;;5092248;28;20039;-71
2023/09/03 05:57:37;;;;;;;6.10;3.30;;;14.80;99.90;;;;;;5087695;28;20024;-71
2023/09/03 06:00:05;;;;;;;6.93;3.20;;;14.80;99.90;;;;;;5090320;28;20032;-71
2023/09/03 06:02:33;;;;;;;6.88;3.35;;;14.80;99.90;;;;;;5082918;28;20783;-70
2023/09/03 06:04:58;;;;;;;9.95;3.63;;;14.80;99.90;;;;;;5088658;28;20051;-71
2023/09/03 06:07:24;;;;;;;5.88;3.63;;;14.80;99.90;;;;;;5087893;28;20028;-70
2023/09/03 06:09:49;;;;;;;8.48;4.60;;;14.80;99.90;;;;;;5090259;28;20039;-72
2023/09/03 06:12:15;;;;;;;12.30;3.45;;;14.80;99.90;;;;;;5089740;28;20544;-72
2023/09/03 06:14:41;;;;;;;9.43;4.13;;;14.80;99.90;;;;;;5091101;28;20036;-72
2023/09/03 06:17:07;;;;;;;9.45;4.05;;;14.90;99.90;;;;;;5087965;28;20089;-72
2023/09/03 06:19:32;;;;;;;7.50;4.22;;;15.00;99.90;;;;;;5087197;28;20547;-71
2023/09/03 06:21:58;;;;;;;10.30;3.78;;;15.00;99.90;;;;;;5088994;28;20039;-70
2023/09/03 06:24:24;;;;;;;9.90;3.97;;;15.10;99.90;;;;;;5089111;28;20032;-72
2023/09/03 06:26:49;;;;;;;8.15;4.00;;;15.20;99.90;;;;;;5086689;28;20460;-71
2023/09/03 06:29:15;;;;;;;7.90;4.57;;;15.30;99.90;;;;;;5088719;28;20016;-71
2023/09/03 06:31:40;;;;;;;12.10;4.47;;;15.40;99.90;;;;;;5098223;28;20036;-70
2023/09/03 06:34:06;;;;;;;9.75;4.28;;;15.40;99.90;;;;;;5098520;28;20038;-70
2023/09/03 06:36:32;;;;;;;10.73;4.13;;;15.50;99.90;;;;;;5087937;28;20093;-70
2023/09/03 06:38:58;;;;;;;7.00;3.70;;;15.50;99.90;;;;;;5093359;28;20032;-71
2023/09/03 06:41:23;;;;;;;10.23;3.80;;;15.60;99.90;;;;;;5086942;28;20024;-70
2023/09/03 06:43:49;;;;;;;6.45;3.63;;;15.70;99.90;;;;;;5089365;28;20385;-71
2023/09/03 06:46:15;;;;;;;7.22;3.30;;;15.80;99.90;;;;;;5100502;28;20034;-71
2023/09/03 06:48:43;;;;;;;10.27;3.67;;;15.90;99.90;;;;;;5085938;28;20133;-70
2023/09/03 06:51:10;;;;;;;8.10;3.53;;;16.00;99.90;;;;;;5081451;28;20032;-72
2023/09/03 06:53:36;;;;;;;9.82;3.85;;;16.10;99.90;;;;;;5082654;28;20028;-70
2023/09/03 06:56:01;;;;;;;5.78;3.50;;;16.10;99.90;;;;;;5087408;28;20043;-70
2023/09/03 06:58:27;;;;;;;10.88;3.75;;;16.20;99.90;;;;;;5085207;28;20024;-70
2023/09/03 07:00:53;;;;;;;11.68;4.18;;;16.10;99.90;;;;;;5088024;28;20028;-70
2023/09/03 07:03:18;;;;;;;8.32;4.07;;;16.10;99.90;;;;;;5088731;28;20028;-70
2023/09/03 07:05:44;;;;;;;11.00;4.70;;;16.10;99.90;;;;;;5087670;28;20040;-72
2023/09/03 07:08:10;;;;;;;8.48;4.20;;;16.10;99.90;;;;;;5086677;28;20445;-70
2023/09/03 07:10:36;;;;;;;6.38;4.45;;;16.20;99.90;;;;;;5083194;28;20424;-71
2023/09/03 07:13:02;;;;;;;6.72;4.10;;;16.40;99.90;;;;;;5088966;28;20039;-70
2023/09/03 07:15:28;;;;;;;6.80;4.18;;;16.60;99.90;;;;;;5086781;28;20085;-71
2023/09/03 07:17:53;;;;;;;12.02;4.10;;;16.60;99.90;;;;;;5084410;28;20032;-72
2023/09/03 07:20:19;;;;;;;7.03;4.40;;;16.70;99.90;;;;;;5086492;28;20194;-72
2023/09/03 07:22:44;;;;;;;11.95;4.93;;;16.80;99.90;;;;;;5087416;28;20035;-72
2023/09/03 07:25:10;;;;;;;11.70;4.75;;;16.90;99.90;;;;;;5084306;28;20771;-71
2023/09/03 07:27:38;;;;;;;7.43;4.50;;;17.00;99.90;;;;;;5084624;28;20024;-71
2023/09/03 07:30:06;;;;;;;8.15;5.15;;;17.10;99.90;;;;;;5083568;28;20024;-70
2023/09/03 07:32:32;;;;;;;12.05;5.25;;;17.20;99.90;;;;;;5087512;28;20046;-71
2023/09/03 07:34:57;;;;;;;7.53;4.93;;;17.30;99.90;;;;;;5084250;28;20392;-72
2023/09/03 07:37:23;;;;;;;8.70;5.63;;;17.40;99.90;;;;;;5078581;28;20425;-71
2023/09/03 07:39:49;;;;;;;12.65;6.22;;;17.50;99.90;;;;;;5082064;28;20489;-71
2023/09/03 07:42:14;;;;;;;8.02;5.55;;;17.60;99.90;;;;;;5080579;28;20510;-71
2023/09/03 07:44:40;;;;;;;9.00;5.82;;;17.70;99.90;;;;;;5078064;28;20028;-70
2023/09/03 07:47:06;;;;;;;10.38;6.80;;;17.80;99.90;;;;;;5083105;28;20371;-70
2023/09/03 07:49:31;;;;;;;10.80;7.18;;;17.90;99.90;;;;;;5084570;28;20472;-71
2023/09/03 07:51:57;;;;;;;9.85;6.45;;;18.00;99.90;;;;;;5085736;28;20441;-70
2023/09/03 07:54:22;;;;;;;11.82;6.63;;;18.00;99.90;;;;;;5082785;28;20038;-71
2023/09/03 07:56:48;;;;;;;12.13;7.53;;;18.20;99.90;;;;;;5090371;28;20059;-71
2023/09/03 07:59:14;;;;;;;14.93;7.22;;;18.20;99.90;;;;;;5092119;28;20034;-72
2023/09/03 08:01:39;;;;;;;10.40;7.10;;;18.30;99.90;;;;;;5092028;28;20039;-70
2023/09/03 08:04:05;;;;;;;9.90;6.80;;;18.50;99.90;;;;;;5095104;28;20115;-72
2023/09/03 08:06:31;;;;;;;11.20;7.05;;;18.60;99.90;;;;;;5089868;28;20091;-72
2023/09/03 08:08:56;;;;;;;10.93;6.78;;;18.60;99.90;;;;;;5087955;28;20137;-71
2023/09/03 08:11:22;;;;;;;11.40;7.20;;;18.70;99.90;;;;;;5090710;28;20460;-72
2023/09/03 08:13:57;;;;;;;10.27;7.00;;;18.80;99.90;;;;;;5090568;28;20099;-72
2023/09/03 08:16:23;;;;;;;9.82;6.75;;;18.90;99.90;;;;;;5093647;28;20032;-74
2023/09/03 08:18:48;;;;;;;10.32;6.68;;;19.00;99.90;;;;;;5091642;28;20035;-71
2023/09/03 08:21:14;;;;;;;10.98;5.97;;;19.10;99.90;;;;;;5085472;28;20032;-71
2023/09/03 08:23:41;;;;;;;11.98;6.20;;;19.30;99.90;;;;;;5092146;28;20040;-71
2023/09/03 08:26:07;;;;;;;8.82;6.20;;;19.30;99.90;;;;;;5093778;28;20040;-71
2023/09/03 08:28:33;;;;;;;10.15;5.60;;;19.40;99.90;;;;;;5091735;28;20074;-71
2023/09/03 08:30:59;;;;;;;8.70;5.57;;;19.60;99.90;;;;;;5086243;28;20458;-71
2023/09/03 08:33:24;;;;;;;10.20;5.47;;;19.70;99.90;;;;;;5074158;28;20025;-71
2023/09/03 08:35:50;;;;;;;9.68;5.00;;;19.90;99.90;;;;;;5078008;28;20027;-71
2023/09/03 08:38:16;;;;;;;10.13;5.25;;;20.00;99.90;;;;;;5094944;28;20464;-71
2023/09/03 08:40:43;;;;;;;11.48;6.45;;;20.20;99.90;;;;;;5094020;28;20916;-71
2023/09/03 08:43:10;;;;;;;9.73;5.43;;;20.40;99.90;;;;;;5093095;28;20114;-71
2023/09/03 08:45:41;;;;;;;7.65;4.85;;;20.50;99.90;;;;;;5093828;28;20043;-71
2023/09/03 08:48:07;;;;;;;8.52;5.00;;;20.60;99.90;;;;;;5089898;28;20075;-71
2023/09/03 08:50:33;;;;;;;7.53;4.97;;;20.50;99.90;;;;;;5092783;28;20075;-71
2023/09/03 08:53:00;;;;;;;12.80;5.75;;;20.60;99.90;;;;;;5090628;28;20462;-71
2023/09/03 08:55:29;;;;;;;6.97;4.80;;;20.70;99.90;;;;;;5092075;28;20036;-71
2023/09/03 08:57:55;;;;;;;7.68;4.90;;;20.90;99.90;;;;;;5091987;28;20036;-71
2023/09/03 09:00:21;;;;;;;6.97;4.85;;;21.00;99.90;;;;;;5092345;28;20028;-71
2023/09/03 09:02:48;;;;;;;8.20;5.05;;;21.20;99.90;;;;;;5086267;28;20031;-74
2023/09/03 09:05:15;;;;;;;6.78;4.47;;;21.20;99.90;;;;;;5087916;28;20039;-70
2023/09/03 09:07:41;;;;;;;7.60;4.45;;;21.30;99.90;;;;;;5085594;28;20787;-71
2023/09/03 09:10:10;;;;;;;8.10;4.53;;;21.30;99.90;;;;;;5082297;28;20048;-71
2023/09/03 09:12:54;;;;;;;9.07;3.90;;;21.50;99.90;;;;;;5083415;28;20035;-71
2023/09/03 09:15:20;;;;;;;7.95;4.80;;;21.70;99.90;;;;;;5081824;28;20490;-71
2023/09/03 09:17:45;;;;;;;7.97;4.53;;;21.80;99.90;;;;;;5086487;28;20040;-71
2023/09/03 09:20:13;;;;;;;10.63;4.72;;;22.00;99.90;;;;;;5085863;28;20035;-71
2023/09/03 09:22:57;;;;;;;11.68;4.07;;;22.20;99.90;;;;;;5086676;28;20028;-70
2023/09/03 09:25:24;;;;;;;5.18;3.92;;;22.30;99.90;;;;;;5088042;28;20074;-70
2023/09/03 09:27:52;;;;;;;6.38;4.22;;;22.30;99.90;;;;;;5077788;28;20114;-70
2023/09/03 09:30:20;;;;;;;6.18;3.63;;;22.40;99.90;;;;;;5078414;28;20090;-70
2023/09/03 09:32:46;;;;;;;8.30;4.20;;;22.60;99.90;;;;;;5088078;28;20028;-70
2023/09/03 09:35:25;;;;;;;6.72;3.65;;;22.70;99.90;;;;;;5090654;28;20035;-71
2023/09/03 09:37:51;;;;;;;4.88;3.22;;;22.80;99.90;;;;;;5089068;28;20174;-70
2023/09/03 09:40:36;;;;;;;4.93;3.30;;;23.00;99.90;;;;;;5090786;28;20103;-70
2023/09/03 09:43:06;;;;;;;5.35;3.38;;;23.00;99.90;;;;;;5089231;28;20496;-74
2023/09/03 09:45:32;;;;;;;4.30;2.90;;;23.10;99.90;;;;;;5084028;28;20024;-73
2023/09/03 09:48:09;;;;;;;4.78;3.03;;;23.30;99.90;;;;;;5088174;28;20056;-73
2023/09/03 09:50:37;;;;;;;5.97;3.28;;;23.30;99.90;;;;;;5087840;28;20090;-72
2023/09/03 09:53:03;;;;;;;6.60;3.00;;;23.20;99.90;;;;;;5085718;28;20034;-72
2023/09/03 09:55:32;;;;;;;3.78;2.70;;;23.10;99.90;;;;;;5085561;28;20089;-73
2023/09/03 09:57:58;;;;;;;4.72;2.30;;;23.20;99.90;;;;;;5086924;28;20499;-72
2023/09/03 10:00:37;;;;;;;2.63;2.03;;;23.20;99.90;;;;;;5087698;28;20123;-72
2023/09/03 10:03:10;;;;;;;2.80;2.20;;;23.20;99.90;;;;;;5085408;28;20032;-73
2023/09/03 10:05:49;;;;;;;2.65;2.13;;;23.30;99.90;;;;;;5087814;28;20097;-73
2023/09/03 10:08:16;;;;;;;2.83;2.05;;;23.40;99.90;;;;;;5085796;28;20111;-73
2023/09/03 10:10:43;;;;;;;3.00;2.00;;;23.50;99.90;;;;;;5086203;28;20074;-72
2023/09/03 10:13:09;;;;;;;2.70;2.20;;;23.60;99.90;;;;;;5077715;28;20127;-73
2023/09/03 10:15:38;;;;;;;2.53;1.80;;;23.50;99.90;;;;;;5085508;28;20122;-72
2023/09/03 10:18:05;;;;;;;4.10;1.87;;;23.60;99.90;;;;;;5086604;28;20067;-72
2023/09/03 10:20:31;;;;;;;2.35;1.30;;;23.80;99.90;;;;;;5063220;28;20032;-72
2023/09/03 10:22:57;;;;;;;5.97;1.50;;;23.90;99.90;;;;;;5082632;28;20111;-72
2023/09/03 10:25:27;;;;;;;1.92;1.33;;;23.90;99.90;;;;;;5084686;28;20118;-73
2023/09/03 10:28:01;;;;;;;1.77;1.10;;;24.20;99.90;;;;;;5078983;28;20039;-72
2023/09/03 10:30:34;;;;;;;3.22;1.23;;;24.30;99.90;;;;;;5092587;28;20038;-72
2023/09/03 10:33:01;;;;;;;1.10;1.00;;;24.60;99.90;;;;;;5088763;28;20546;-72
2023/09/03 10:35:27;;;;;;;1.30;1.10;;;24.70;99.90;;;;;;5089171;28;20056;-73
2023/09/03 10:37:53;;;;;;;1.35;1.10;;;24.60;99.90;;;;;;5087073;28;20965;-72
2023/09/03 10:40:23;;;;;;;1.20;1.02;;;24.80;99.90;;;;;;5085585;28;20569;-72
2023/09/03 10:42:53;;;;;;;1.48;1.30;;;24.90;99.90;;;;;;5082791;28;20036;-72
2023/09/03 10:45:20;;;;;;;1.15;0.90;;;24.90;99.90;;;;;;5087915;28;21876;-72
2023/09/03 10:48:03;;;;;;;2.13;0.93;;;25.00;99.90;;;;;;5084727;28;20055;-72
2023/09/03 10:50:49;;;;;;;3.25;0.80;;;25.10;99.90;;;;;;5086761;28;20031;-73
2023/09/03 10:53:40;;;;;;;1.80;1.15;;;25.30;99.90;;;;;;5084577;28;20027;-72
2023/09/03 10:56:16;;;;;;;1.60;0.90;;;25.30;99.90;;;;;;5084896;28;20039;-72
2023/09/03 10:59:02;;;;;;;0.95;0.70;;;25.40;99.90;;;;;;5081298;28;20028;-72
2023/09/03 11:01:32;;;;;;;2.78;0.90;;;25.20;99.90;;;;;;5081795;28;20035;-72
2023/09/03 11:04:02;;;;;;;1.58;0.90;;;25.00;99.90;;;;;;5081148;28;20102;-72
2023/09/03 11:06:31;;;;;;;;;;;25.10;99.90;;;;;;5089706;28;20026;-72
2023/09/03 11:08:59;;;;;;;1.30;1.00;;;25.20;99.90;;;;;;5082952;28;19920;-73
2023/09/03 11:11:30;;;;;;;1.38;1.00;;;25.40;99.90;;;;;;5083475;28;20457;-73
2023/09/03 11:13:56;;;;;;;1.83;1.20;;;25.30;99.90;;;;;;5084530;28;20887;-71
2023/09/03 11:16:37;;;;;;;3.13;1.20;;;25.30;99.90;;;;;;5067910;28;20040;-72
2023/09/03 11:19:06;;;;;;;1.70;1.30;;;25.50;99.90;;;;;;5086710;28;20033;-72
2023/09/03 11:21:33;;;;;;;2.90;1.10;;;25.60;99.90;;;;;;5086866;28;20113;-72
2023/09/03 11:24:04;;;;;;;1.70;1.08;;;25.60;99.90;;;;;;5084297;28;20043;-72
2023/09/03 11:26:31;;;;;;;1.58;1.00;;;25.70;99.90;;;;;;5087842;28;20073;-73
2023/09/03 11:28:57;;;;;;;1.85;0.90;;;25.80;99.90;;;;;;5088106;28;20028;-72
2023/09/03 11:31:26;;;;;;;7.05;1.92;;;25.80;99.90;;;;;;5086055;28;20154;-72
2023/09/03 11:33:52;;;;;;;17.42;1.60;;;25.80;99.90;;;;;;5081690;28;20035;-71
2023/09/03 11:36:24;;;;;;;1.58;1.10;;;26.00;99.90;;;;;;5078169;28;20039;-72
2023/09/03 11:38:55;;;;;;;22.25;1.77;;;26.00;99.90;;;;;;5078869;28;20039;-74
2023/09/03 11:41:21;;;;;;;29.08;2.50;;;26.30;99.90;;;;;;5088485;28;20020;-73
2023/09/03 11:43:47;;;;;;;2.58;1.15;;;26.60;99.90;;;;;;5087053;28;20023;-75
2023/09/03 11:46:14;;;;;;;1.35;0.90;;;26.90;99.90;;;;;;5083705;28;20111;-73
2023/09/03 11:48:40;;;;;;;2.78;1.23;;;27.20;99.90;;;;;;5084278;28;20053;-74
2023/09/03 11:51:06;;;;;;;1.58;1.02;;;27.30;99.90;;;;;;5087730;28;20674;-73
2023/09/03 11:53:42;;;;;;;1.08;0.77;;;27.10;99.90;;;;;;5085276;28;20036;-74
2023/09/03 11:56:14;;;;;;;2.25;1.10;;;26.80;99.90;;;;;;5086130;28;20032;-74
2023/09/03 11:58:41;;;;;;;1.58;1.00;;;27.00;99.90;;;;;;5086116;28;20051;-73
2023/09/03 12:01:07;;;;;;;1.42;0.98;;;26.70;99.90;;;;;;5082375;28;20042;-73
2023/09/03 12:03:33;;;;;;;2.92;1.10;;;26.80;99.90;;;;;;5085816;28;20031;-73
2023/09/03 12:06:00;;;;;;;1.75;1.00;;;26.80;99.90;;;;;;5083412;28;20036;-74
2023/09/03 12:08:30;;;;;;;6.38;1.15;;;27.00;99.90;;;;;;5083328;28;20183;-74
2023/09/03 12:10:56;;;;;;;;;;;27.10;99.90;;;;;;5083342;28;20039;-73
2023/09/03 12:13:30;;;;;;;1.13;0.80;;;26.80;99.90;;;;;;5086609;28;19908;-73
2023/09/03 12:16:06;;;;;;;1.67;1.05;;;26.90;99.90;;;;;;5082329;28;20134;-74
2023/09/03 12:18:33;;;;;;;1.60;1.25;;;27.10;99.90;;;;;;5086554;28;20028;-74
2023/09/03 12:20:59;;;;;;;1.75;1.30;;;27.20;99.90;;;;;;5073267;28;20290;-73
2023/09/03 12:23:26;;;;;;;3.63;0.90;;;26.90;99.90;;;;;;5084495;28;21826;-72
2023/09/03 12:25:52;;;;;;;2.17;1.08;;;26.60;99.90;;;;;;5083682;28;20063;-73
2023/09/03 12:28:17;;;;;;;2.20;1.27;;;26.60;99.90;;;;;;5083378;28;20048;-73
2023/09/03 12:30:57;;;;;;;1.40;1.00;;;26.60;99.90;;;;;;5084471;28;20063;-74
2023/09/03 12:33:41;;;;;;;2.70;1.20;;;26.70;99.90;;;;;;5081212;28;20020;-73
2023/09/03 12:36:09;;;;;;;7.07;1.55;;;26.60;99.90;;;;;;5087373;28;20439;-73
2023/09/03 12:38:58;;;;;;;2.67;1.30;;;26.80;99.90;;;;;;5068155;28;20036;-73
2023/09/03 12:41:25;;;;;;;2.50;1.50;;;26.90;99.90;;;;;;5083337;28;20020;-73
2023/09/03 12:43:52;;;;;;;2.30;1.63;;;26.80;99.90;;;;;;5086384;28;20713;-73
2023/09/03 12:46:18;;;;;;;1.80;1.15;;;26.60;99.90;;;;;;5093736;28;20039;-73
2023/09/03 12:48:44;;;;;;;2.85;1.52;;;26.60;99.90;;;;;;5086546;28;21167;-73